Latest Coastal Weather Observations for Onslow Airport

IDW60701

Issued at 10:45 am WST Wednesday 3 September 2014 (issued every 10 minutes, with the page automatically refreshed every 10 minutes)

About coastal observations | Map of coastal stations | Coastal observations for WA | Marine services | Other Formats
Station Details ID: 005017 Name: ONSLOW AIRPORT Lat: -21.67 Lon: 115.11 Height: 10.5 m
Data from the previous 72 hours. | See also: Recent months at Onslow Airport
Date/Time
WST
Temp

°C
Wind Pressure Rain
since 9am
mm
Weather Cloud Vis
km
Sea
Height
m
Swell
Dir
 
Speed
knots
Gust
knots
hPa Trend Height
m
Period
s
Dir
03/10:30am 29.4 ENE 6 7 1017.9 - 0.0 - - - - - - -
03/10:00am 28.6 ENE 5 7 1017.9 - 0.0 - - - - - - -
03/09:30am 27.0 E 5 6 1017.9 - 0.0 - - - - - - -
03/09:00am 24.6 ENE 4 6 1017.9 - 0.0 - - - - - - -
03/08:30am 23.0 E 5 6 1017.9 - 0.0 - - - - - - -
03/08:00am 21.1 E 5 6 1017.7 - 0.0 - - - - - - -
03/07:30am 18.6 E 5 6 1017.5 - 0.0 - - - - - - -
03/07:00am 16.7 ESE 4 5 1017.4 - 0.0 - - - - - - -
03/06:30am 15.7 CALM 0 0 1017.1 - 0.0 - - - - - - -
03/06:00am 15.8 ESE 3 4 1016.9 - 0.0 - - - - - - -
03/05:30am 16.0 SE 5 5 1016.6 - 0.0 - - - - - - -
03/05:00am 16.4 ESE 5 5 1016.6 - 0.0 - - - - - - -
03/04:30am 15.8 ESE 6 7 1016.3 - 0.0 - - - - - - -
03/04:00am 16.0 E 4 6 1016.2 - 0.0 - - - - - - -
03/03:30am 16.4 SE 6 8 1016.4 - 0.0 - - - - - - -
03/03:00am 16.8 SSW 5 7 1016.6 - 0.0 - - - - - - -
03/02:30am 16.8 SW 6 8 1016.6 - 0.0 - - - - - - -
03/02:00am 17.3 W 5 5 1016.6 - 0.0 - - - - - - -
03/01:30am 17.5 W 4 4 1017.0 - 0.0 - - - - - - -
03/01:00am 17.7 W 4 5 1017.3 - 0.0 - - - - - - -
03/12:30am 17.9 W 5 5 1017.5 - 0.0 - - - - - - -
03/12:00am 18.5 W 6 6 1017.8 - 0.0 - - - - - - -
 
Date/Time
WST
Temp

°C
Wind Pressure Rain
since 9am
mm
Weather Cloud Vis
km
Sea
Height
m
Swell
Dir
 
Speed
knots
Gust
knots
hPa Trend Height
m
Period
s
Dir
02/11:30pm 18.9 W 5 6 1017.9 - 0.0 - - - - - - -
02/11:00pm 19.5 WSW 6 7 1018.1 - 0.0 - - - - - - -
02/10:30pm 19.7 WSW 6 6 1018.1 - 0.0 - - - - - - -
02/10:00pm 20.1 WSW 4 5 1018.3 - 0.0 - - - - - - -
02/09:30pm 20.3 WSW 5 6 1018.3 - 0.0 - - - - - - -
02/09:00pm 20.1 WSW 5 6 1018.1 - 0.0 - - - - - - -
02/08:30pm 20.8 WSW 3 4 1017.7 - 0.0 - - - - - - -
02/08:00pm 20.5 W 5 5 1017.3 - 0.0 - - - - - - -
02/07:30pm 20.8 W 5 5 1016.9 - 0.0 - - - - - - -
02/07:00pm 21.5 WNW 6 7 1016.6 - 0.0 - - - - - - -
02/06:30pm 22.7 W 7 8 1016.5 - 0.0 - - - - - - -
02/06:00pm 24.6 WNW 6 8 1016.1 - 0.0 - - - - - - -
02/05:30pm 26.4 WNW 8 9 1015.8 - 0.0 - - - - - - -
02/05:00pm 27.4 WNW 8 10 1015.6 - 0.0 - - - - - - -
02/04:30pm 28.3 NW 8 9 1015.4 - 0.0 - - - - - - -
02/04:00pm 29.1 WNW 8 11 1015.3 - 0.0 - - - - - - -
02/03:30pm 29.5 WNW 9 10 1015.5 - 0.0 - - - - - - -
02/03:00pm 29.2 WNW 9 11 1015.5 - 0.0 - - - - - - -
02/02:30pm 29.1 NW 9 12 1015.7 - 0.0 - - - - - - -
02/02:00pm 29.2 NW 9 12 1015.9 - 0.0 - - - - - - -
02/01:30pm 29.6 NW 9 11 1016.4 - 0.0 - - - - - - -
02/01:00pm 30.5 NW 8 10 1016.7 - 0.0 - - - - - - -
02/12:30pm 30.3 NNW 7 9 1017.0 - 0.0 - - - - - - -
02/12:00pm 29.4 NW 7 11 1017.1 - 0.0 - - - - - - -
02/11:30am 29.1 NNW 6 7 1017.4 - 0.0 - - - - - - -
02/11:00am 28.8 SW 3 6 1017.7 - 0.0 - - - - - - -
02/10:30am 27.6 SE 5 7 1018.0 - 0.0 - - - - - - -
02/10:00am 26.6 SE 5 8 1017.9 - 0.0 - - - - - - -
02/09:30am 24.9 E 4 6 1017.9 - 0.0 - - - - - - -
02/09:00am 23.3 ENE 5 6 1017.9 - 0.4 - - - - - - -
02/08:30am 21.3 E 5 6 1017.6 - 0.4 - - - - - - -
02/08:00am 19.5 E 4 5 1017.4 - 0.4 - - - - - - -
02/07:30am 18.0 ESE 4 4 1017.4 - 0.4 - - - - - - -
02/07:00am 16.0 SE 3 4 1016.9 - 0.2 - - - - - - -
02/06:30am 15.6 ESE 3 3 1016.6 - 0.2 - - - - - - -
02/06:00am 15.8 ESE 4 5 1016.4 - 0.2 - - - - - - -
02/05:30am 15.9 CALM 0 3 1016.2 - 0.2 - - - - - - -
02/05:00am 15.5 ESE 6 7 1015.9 - 0.2 - - - - - - -
02/04:30am 15.8 E 5 6 1015.7 - 0.2 - - - - - - -
02/04:00am 16.0 SE 5 6 1015.6 - 0.2 - - - - - - -
02/03:30am 16.6 SE 4 5 1015.4 - 0.2 - - - - - - -
02/03:00am 17.9 SE 6 8 1015.6 - 0.2 Recent precip. - - - - - -
02/02:30am 17.7 SE 6 7 1015.4 - 0.2 - - - - - - -
02/02:00am 16.9 SSE 3 5 1015.4 - 0.0 - - - - - - -
02/01:30am 16.6 CALM 0 0 1015.8 - 0.0 - - - - - - -
02/01:00am 17.5 SSW 3 3 1016.1 - 0.0 - - - - - - -
02/12:30am 17.4 WSW 4 5 1016.2 - 0.0 - - - - - - -
02/12:00am 18.3 WSW 5 5 1016.2 - 0.0 - - - - - - -
 
Date/Time
WST
Temp

°C
Wind Pressure Rain
since 9am
mm
Weather Cloud Vis
km
Sea
Height
m
Swell
Dir
 
Speed
knots
Gust
knots
hPa Trend Height
m
Period
s
Dir
01/11:30pm 18.6 W 6 7 1016.3 - 0.0 - - - - - - -
01/11:00pm 19.1 WSW 6 8 1016.6 - 0.0 - - - - - - -
01/10:30pm 18.8 WSW 6 7 1016.7 - 0.0 - - - - - - -
01/10:00pm 19.3 W 6 7 1016.8 - 0.0 - - - - - - -
01/09:30pm 19.5 WNW 7 7 1016.6 - 0.0 - - - - - - -
01/09:00pm 20.3 WNW 7 8 1016.4 - 0.0 - - - - - - -
01/08:30pm 20.4 WNW 7 7 1016.3 - 0.0 - - - - - - -
01/08:00pm 21.1 NW 7 8 1016.0 - 0.0 - - - - - - -
01/07:30pm 21.3 WNW 7 7 1015.7 - 0.0 - - - - - - -
01/07:00pm 21.7 WNW 7 8 1015.3 - 0.0 - - - - - - -
01/06:30pm 22.5 NW 7 9 1014.9 - 0.0 - - - - - - -
01/06:00pm 23.8 WNW 8 10 1014.8 - 0.0 - - - - - - -
01/05:30pm 25.0 NW 10 13 1014.5 - 0.0 - - - - - - -
01/05:00pm 26.1 NW 10 13 1014.3 - 0.0 - - - - - - -
01/04:30pm 26.8 NW 11 13 1014.0 - 0.0 - - - - - - -
01/04:00pm 27.6 NNW 12 15 1013.8 - 0.0 - - - - - - -
01/03:30pm 27.9 NNW 14 17 1013.8 - 0.0 - - - - - - -
01/03:00pm 28.3 NW 12 16 1014.0 - 0.0 - - - - - - -
01/02:30pm 27.9 NW 13 16 1014.2 - 0.0 - - - - - - -
01/02:00pm 28.6 NNW 12 17 1014.4 - 0.0 - - - - - - -
01/01:30pm 29.0 NNW 13 16 1014.5 - 0.0 - - - - - - -
01/01:00pm 29.3 NNW 12 17 1014.7 - 0.0 - - - - - - -
01/12:30pm 30.3 NW 12 16 1014.9 - 0.0 - - - - - - -
01/12:00pm 33.2 N 9 12 1015.2 - 0.0 - - - - - - -
01/11:30am 32.9 NE 4 8 1015.6 - 0.0 - - - - - - -
01/11:00am 32.5 E 6 8 1016.1 - 0.0 - - - - - - -
01/10:30am 31.8 E 7 10 1016.4 - 0.0 - - - - - - -
01/10:00am 30.7 ESE 10 12 1016.5 - 0.0 - - - - - - -
01/09:30am 28.6 SE 9 11 1016.6 - 0.0 - - - - - - -
01/09:00am 26.5 SE 6 8 1016.2 - 0.0 - - - - - - -
01/08:30am 23.3 SE 6 7 1016.0 - 0.0 - - - - - - -
01/08:00am 22.1 SE 7 9 1015.8 - 0.0 - - - - - - -
01/07:30am 19.3 ESE 5 6 1015.7 - 0.0 - - - - - - -
01/07:00am 16.7 ESE 5 7 1015.6 - 0.0 - - - - - - -
01/06:30am 15.2 ESE 6 7 1015.5 - 0.0 - - - - - - -
01/06:00am 15.9 SE 6 7 1015.3 - 0.0 - - - - - - -
01/05:30am 16.2 SE 6 7 1015.2 - 0.0 - - - - - - -
01/05:00am 16.8 SSE 9 9 1015.1 - 0.0 - - - - - - -
01/04:30am 17.5 SSE 8 9 1014.9 - 0.0 - - - - - - -
01/04:00am 18.3 SSE 9 11 1014.6 - 0.0 - - - - - - -
01/03:30am 19.0 SSE 10 13 1014.5 - 0.0 - - - - - - -
01/03:00am 19.7 S 12 15 1014.6 - 0.0 - - - - - - -
01/02:30am 19.7 S 12 15 1014.8 - 0.0 - - - - - - -
01/02:00am 20.0 S 12 15 1015.0 - 0.0 - - - - - - -
01/01:30am 20.1 S 11 14 1015.2 - 0.0 - - - - - - -
01/01:00am 19.3 S 9 10 1015.4 - 0.0 - - - - - - -
01/12:30am 19.2 S 9 10 1015.6 - 0.0 - - - - - - -
01/12:00am 19.8 S 9 11 1015.7 - 0.0 - - - - - - -
 
Date/Time
WST
Temp

°C
Wind Pressure Rain
since 9am
mm
Weather Cloud Vis
km
Sea
Height
m
Swell
Dir
 
Speed
knots
Gust
knots
hPa Trend Height
m
Period
s
Dir
31/11:30pm 19.8 SSW 8 9 1015.8 - 0.0 - - - - - - -
31/11:00pm 19.9 SSW 8 9 1015.9 - 0.0 - - - - - - -
31/10:30pm 20.7 SSW 9 10 1015.9 - 0.0 - - - - - - -
31/10:00pm 21.5 SW 8 10 1016.0 - 0.0 - - - - - - -
31/09:30pm 21.0 SW 9 9 1016.0 - 0.0 - - - - - - -
31/09:00pm 21.1 SW 7 9 1015.9 - 0.0 - - - - - - -
31/08:30pm 21.4 SW 8 8 1015.6 - 0.0 - - - - - - -
31/08:00pm 22.5 WSW 8 9 1015.4 - 0.0 - - - - - - -
31/07:30pm 22.7 W 8 9 1015.1 - 0.0 - - - - - - -
31/07:00pm 23.6 W 8 9 1014.8 - 0.0 - - - - - - -
31/06:30pm 24.6 W 7 9 1014.4 - 0.0 - - - - - - -
31/06:00pm 26.4 W 8 11 1014.1 - 0.0 - - - - - - -
31/05:30pm 27.6 W 11 15 1013.8 - 0.0 - - - - - - -
31/05:00pm 28.7 WNW 11 14 1013.6 - 0.0 - - - - - - -
31/04:30pm 29.6 WNW 11 14 1013.6 - 0.0 - - - - - - -
31/04:00pm 29.8 WNW 11 13 1013.5 - 0.0 - - - - - - -
31/03:30pm 30.1 WNW 12 15 1013.6 - 0.0 - - - - - - -
31/03:00pm 29.9 WNW 13 15 1013.8 - 0.0 - - - - - - -
31/02:30pm 31.5 NW 11 14 1014.0 - 0.0 - - - - - - -
31/02:00pm 32.9 NNW 9 12 1014.2 - 0.0 - - - - - - -
31/01:30pm 33.2 NNE 4 7 1014.4 - 0.0 - - - - - - -
31/01:00pm 33.2 SE 7 10 1014.6 - 0.0 - - - - - - -
31/12:30pm 32.1 SSE 9 12 1015.0 - 0.0 - - - - - - -
31/12:00pm 32.4 SE 8 12 1015.5 - 0.0 - - - - - - -
31/11:30am 31.8 SE 9 13 1016.0 - 0.0 - - - - - - -
31/11:00am 31.2 SE 11 13 1016.4 - 0.0 - - - - - - -

Other Formats:

Comma delimited format used in spreadsheet applications
http://www.bom.gov.au/fwo/IDW60701/IDW60701.95305.axf

JavaScript Object Notation format (JSON) in row-major order
http://www.bom.gov.au/fwo/IDW60701/IDW60701.95305.json